sensor_id;sensor_type;location;lat;lon;timestamp;P1;durP1;ratioP1;P2;durP2;ratioP2
59659;SDS011;45534;52.690;6.268;2023-04-16T00:02:13;36.17;;;21.48;;
59659;SDS011;45534;52.690;6.268;2023-04-16T00:04:39;31.50;;;19.75;;
59659;SDS011;45534;52.690;6.268;2023-04-16T00:07:05;30.40;;;22.27;;
59659;SDS011;45534;52.690;6.268;2023-04-16T00:09:31;39.08;;;25.40;;
59659;SDS011;45534;52.690;6.268;2023-04-16T00:11:57;49.13;;;29.77;;
59659;SDS011;45534;52.690;6.268;2023-04-16T00:14:22;39.22;;;24.67;;
59659;SDS011;45534;52.690;6.268;2023-04-16T00:16:48;19.48;;;13.73;;
59659;SDS011;45534;52.690;6.268;2023-04-16T00:19:14;41.75;;;15.20;;
59659;SDS011;45534;52.690;6.268;2023-04-16T00:21:40;43.63;;;26.02;;
59659;SDS011;45534;52.690;6.268;2023-04-16T00:24:05;36.95;;;24.38;;
59659;SDS011;45534;52.690;6.268;2023-04-16T00:26:31;47.85;;;27.25;;
59659;SDS011;45534;52.690;6.268;2023-04-16T00:28:57;37.55;;;18.80;;
59659;SDS011;45534;52.690;6.268;2023-04-16T00:31:26;30.42;;;15.07;;
59659;SDS011;45534;52.690;6.268;2023-04-16T00:33:56;39.55;;;20.42;;
59659;SDS011;45534;52.690;6.268;2023-04-16T00:36:22;37.35;;;18.20;;
59659;SDS011;45534;52.690;6.268;2023-04-16T00:38:48;31.77;;;17.48;;
59659;SDS011;45534;52.690;6.268;2023-04-16T00:41:15;45.85;;;29.33;;
59659;SDS011;45534;52.690;6.268;2023-04-16T00:43:41;31.67;;;18.42;;
59659;SDS011;45534;52.690;6.268;2023-04-16T00:46:06;29.08;;;15.35;;
59659;SDS011;45534;52.690;6.268;2023-04-16T00:48:33;50.10;;;22.98;;
59659;SDS011;45534;52.690;6.268;2023-04-16T00:51:03;49.08;;;26.88;;
59659;SDS011;45534;52.690;6.268;2023-04-16T00:53:30;22.08;;;15.30;;
59659;SDS011;45534;52.690;6.268;2023-04-16T00:55:56;28.38;;;14.85;;
59659;SDS011;45534;52.690;6.268;2023-04-16T00:58:22;29.77;;;15.38;;
59659;SDS011;45534;52.690;6.268;2023-04-16T01:00:49;40.22;;;21.77;;
59659;SDS011;45534;52.690;6.268;2023-04-16T01:03:15;45.78;;;25.38;;
59659;SDS011;45534;52.690;6.268;2023-04-16T01:05:41;61.05;;;30.15;;
59659;SDS011;45534;52.690;6.268;2023-04-16T01:08:14;50.85;;;33.65;;
59659;SDS011;45534;52.690;6.268;2023-04-16T01:10:44;46.38;;;20.70;;
59659;SDS011;45534;52.690;6.268;2023-04-16T01:13:10;46.40;;;25.08;;
59659;SDS011;45534;52.690;6.268;2023-04-16T01:15:36;53.88;;;30.90;;
59659;SDS011;45534;52.690;6.268;2023-04-16T01:18:02;55.03;;;26.40;;
59659;SDS011;45534;52.690;6.268;2023-04-16T01:20:38;59.80;;;30.90;;
59659;SDS011;45534;52.690;6.268;2023-04-16T01:23:03;49.50;;;24.35;;
59659;SDS011;45534;52.690;6.268;2023-04-16T01:25:29;46.42;;;21.60;;
59659;SDS011;45534;52.690;6.268;2023-04-16T01:27:55;54.42;;;28.80;;
59659;SDS011;45534;52.690;6.268;2023-04-16T01:30:21;25.15;;;18.92;;
59659;SDS011;45534;52.690;6.268;2023-04-16T01:32:47;34.78;;;17.65;;
59659;SDS011;45534;52.690;6.268;2023-04-16T01:35:12;50.22;;;25.95;;
59659;SDS011;45534;52.690;6.268;2023-04-16T01:37:38;33.42;;;20.77;;
59659;SDS011;45534;52.690;6.268;2023-04-16T01:40:04;47.17;;;20.10;;
59659;SDS011;45534;52.690;6.268;2023-04-16T01:42:30;35.42;;;22.70;;
59659;SDS011;45534;52.690;6.268;2023-04-16T01:44:56;35.95;;;15.13;;
59659;SDS011;45534;52.690;6.268;2023-04-16T01:47:24;43.38;;;19.77;;
59659;SDS011;45534;52.690;6.268;2023-04-16T01:49:50;35.47;;;19.58;;
59659;SDS011;45534;52.690;6.268;2023-04-16T01:52:16;49.25;;;26.85;;
59659;SDS011;45534;52.690;6.268;2023-04-16T01:54:41;54.42;;;31.67;;
59659;SDS011;45534;52.690;6.268;2023-04-16T01:57:07;49.35;;;22.92;;
59659;SDS011;45534;52.690;6.268;2023-04-16T01:59:33;71.60;;;38.97;;
59659;SDS011;45534;52.690;6.268;2023-04-16T02:02:09;74.45;;;35.92;;
59659;SDS011;45534;52.690;6.268;2023-04-16T02:04:38;48.42;;;21.80;;
59659;SDS011;45534;52.690;6.268;2023-04-16T02:07:05;42.65;;;24.55;;
59659;SDS011;45534;52.690;6.268;2023-04-16T02:09:39;55.75;;;28.52;;
59659;SDS011;45534;52.690;6.268;2023-04-16T02:12:05;69.20;;;34.67;;
59659;SDS011;45534;52.690;6.268;2023-04-16T02:14:31;52.05;;;29.85;;
59659;SDS011;45534;52.690;6.268;2023-04-16T02:16:57;36.78;;;19.85;;
59659;SDS011;45534;52.690;6.268;2023-04-16T02:19:24;55.58;;;32.55;;
59659;SDS011;45534;52.690;6.268;2023-04-16T02:21:50;41.72;;;26.85;;
59659;SDS011;45534;52.690;6.268;2023-04-16T02:24:16;64.18;;;34.38;;
59659;SDS011;45534;52.690;6.268;2023-04-16T02:26:42;34.78;;;17.73;;
59659;SDS011;45534;52.690;6.268;2023-04-16T02:29:09;41.88;;;24.73;;
59659;SDS011;45534;52.690;6.268;2023-04-16T02:31:35;40.78;;;20.20;;
59659;SDS011;45534;52.690;6.268;2023-04-16T02:34:01;43.95;;;28.00;;
59659;SDS011;45534;52.690;6.268;2023-04-16T02:36:27;40.25;;;25.17;;
59659;SDS011;45534;52.690;6.268;2023-04-16T02:38:52;60.15;;;35.92;;
59659;SDS011;45534;52.690;6.268;2023-04-16T02:41:18;41.67;;;25.67;;
59659;SDS011;45534;52.690;6.268;2023-04-16T02:43:44;67.13;;;33.97;;
59659;SDS011;45534;52.690;6.268;2023-04-16T02:46:10;55.45;;;31.38;;
59659;SDS011;45534;52.690;6.268;2023-04-16T02:48:35;31.48;;;19.67;;
59659;SDS011;45534;52.690;6.268;2023-04-16T02:51:01;40.50;;;25.42;;
59659;SDS011;45534;52.690;6.268;2023-04-16T02:53:27;36.20;;;21.45;;
59659;SDS011;45534;52.690;6.268;2023-04-16T02:55:53;47.13;;;27.25;;
59659;SDS011;45534;52.690;6.268;2023-04-16T02:58:20;49.47;;;28.85;;
59659;SDS011;45534;52.690;6.268;2023-04-16T03:00:47;40.03;;;24.42;;
59659;SDS011;45534;52.690;6.268;2023-04-16T03:03:13;33.05;;;18.40;;
59659;SDS011;45534;52.690;6.268;2023-04-16T03:05:39;25.55;;;12.52;;
59659;SDS011;45534;52.690;6.268;2023-04-16T03:08:05;58.67;;;32.70;;
59659;SDS011;45534;52.690;6.268;2023-04-16T03:10:31;44.42;;;27.73;;
59659;SDS011;45534;52.690;6.268;2023-04-16T03:12:57;70.18;;;37.75;;
59659;SDS011;45534;52.690;6.268;2023-04-16T03:15:23;48.35;;;32.67;;
59659;SDS011;45534;52.690;6.268;2023-04-16T03:17:49;35.17;;;15.77;;
59659;SDS011;45534;52.690;6.268;2023-04-16T03:20:15;45.55;;;27.15;;
59659;SDS011;45534;52.690;6.268;2023-04-16T03:22:41;44.40;;;23.33;;
59659;SDS011;45534;52.690;6.268;2023-04-16T03:25:07;33.08;;;23.27;;
59659;SDS011;45534;52.690;6.268;2023-04-16T03:27:33;56.30;;;38.53;;
59659;SDS011;45534;52.690;6.268;2023-04-16T03:29:59;65.32;;;36.78;;
59659;SDS011;45534;52.690;6.268;2023-04-16T03:32:25;44.05;;;25.48;;
59659;SDS011;45534;52.690;6.268;2023-04-16T03:34:51;40.05;;;22.70;;
59659;SDS011;45534;52.690;6.268;2023-04-16T03:37:17;36.58;;;24.23;;
59659;SDS011;45534;52.690;6.268;2023-04-16T03:39:42;29.77;;;17.83;;
59659;SDS011;45534;52.690;6.268;2023-04-16T03:42:08;20.67;;;13.27;;
59659;SDS011;45534;52.690;6.268;2023-04-16T03:44:34;48.60;;;32.40;;
59659;SDS011;45534;52.690;6.268;2023-04-16T03:46:59;35.35;;;22.60;;
59659;SDS011;45534;52.690;6.268;2023-04-16T03:49:25;46.95;;;28.27;;
59659;SDS011;45534;52.690;6.268;2023-04-16T03:51:51;37.58;;;20.10;;
59659;SDS011;45534;52.690;6.268;2023-04-16T03:54:16;25.73;;;15.43;;
59659;SDS011;45534;52.690;6.268;2023-04-16T03:56:42;26.38;;;19.70;;
59659;SDS011;45534;52.690;6.268;2023-04-16T03:59:08;24.42;;;17.55;;
59659;SDS011;45534;52.690;6.268;2023-04-16T04:01:34;39.05;;;23.13;;
59659;SDS011;45534;52.690;6.268;2023-04-16T04:04:00;38.85;;;15.98;;
59659;SDS011;45534;52.690;6.268;2023-04-16T04:06:25;40.83;;;14.82;;
59659;SDS011;45534;52.690;6.268;2023-04-16T04:08:51;30.35;;;16.95;;
59659;SDS011;45534;52.690;6.268;2023-04-16T04:11:17;20.52;;;13.52;;
59659;SDS011;45534;52.690;6.268;2023-04-16T04:13:43;42.95;;;20.80;;
59659;SDS011;45534;52.690;6.268;2023-04-16T04:16:09;47.30;;;17.98;;
59659;SDS011;45534;52.690;6.268;2023-04-16T04:18:35;31.08;;;17.10;;
59659;SDS011;45534;52.690;6.268;2023-04-16T04:21:05;12.45;;;9.20;;
59659;SDS011;45534;52.690;6.268;2023-04-16T04:23:31;35.33;;;20.17;;
59659;SDS011;45534;52.690;6.268;2023-04-16T04:25:57;28.17;;;15.38;;
59659;SDS011;45534;52.690;6.268;2023-04-16T04:28:23;36.00;;;20.15;;
59659;SDS011;45534;52.690;6.268;2023-04-16T04:30:49;14.63;;;10.95;;
59659;SDS011;45534;52.690;6.268;2023-04-16T04:33:15;26.95;;;15.45;;
59659;SDS011;45534;52.690;6.268;2023-04-16T04:35:40;28.00;;;16.15;;
59659;SDS011;45534;52.690;6.268;2023-04-16T04:38:06;43.00;;;28.45;;
59659;SDS011;45534;52.690;6.268;2023-04-16T04:40:32;42.30;;;27.02;;
59659;SDS011;45534;52.690;6.268;2023-04-16T04:42:57;49.10;;;30.02;;
59659;SDS011;45534;52.690;6.268;2023-04-16T04:45:23;33.83;;;21.27;;
59659;SDS011;45534;52.690;6.268;2023-04-16T04:47:51;38.60;;;28.65;;
59659;SDS011;45534;52.690;6.268;2023-04-16T04:50:17;31.10;;;18.65;;
59659;SDS011;45534;52.690;6.268;2023-04-16T04:52:43;33.90;;;24.17;;
59659;SDS011;45534;52.690;6.268;2023-04-16T04:55:08;25.45;;;17.85;;
59659;SDS011;45534;52.690;6.268;2023-04-16T04:57:34;29.98;;;20.00;;
59659;SDS011;45534;52.690;6.268;2023-04-16T05:00:00;35.83;;;19.33;;
59659;SDS011;45534;52.690;6.268;2023-04-16T05:02:27;32.47;;;23.13;;
59659;SDS011;45534;52.690;6.268;2023-04-16T05:04:53;43.00;;;20.52;;
59659;SDS011;45534;52.690;6.268;2023-04-16T05:07:19;38.10;;;23.70;;
59659;SDS011;45534;52.690;6.268;2023-04-16T05:09:45;37.80;;;21.58;;
59659;SDS011;45534;52.690;6.268;2023-04-16T05:12:11;38.70;;;25.17;;
59659;SDS011;45534;52.690;6.268;2023-04-16T05:14:37;35.22;;;21.30;;
59659;SDS011;45534;52.690;6.268;2023-04-16T05:17:02;40.97;;;22.63;;
59659;SDS011;45534;52.690;6.268;2023-04-16T05:19:28;30.73;;;21.63;;
59659;SDS011;45534;52.690;6.268;2023-04-16T05:21:54;36.40;;;23.17;;
59659;SDS011;45534;52.690;6.268;2023-04-16T05:24:20;33.35;;;20.65;;
59659;SDS011;45534;52.690;6.268;2023-04-16T05:26:46;41.88;;;26.13;;
59659;SDS011;45534;52.690;6.268;2023-04-16T05:29:12;36.15;;;20.77;;
59659;SDS011;45534;52.690;6.268;2023-04-16T05:31:38;51.05;;;23.95;;
59659;SDS011;45534;52.690;6.268;2023-04-16T05:34:03;58.85;;;31.63;;
59659;SDS011;45534;52.690;6.268;2023-04-16T05:36:29;43.78;;;28.75;;
59659;SDS011;45534;52.690;6.268;2023-04-16T05:38:55;32.47;;;23.48;;
59659;SDS011;45534;52.690;6.268;2023-04-16T05:41:20;16.58;;;12.32;;
59659;SDS011;45534;52.690;6.268;2023-04-16T05:43:46;19.30;;;13.85;;
59659;SDS011;45534;52.690;6.268;2023-04-16T05:46:12;28.30;;;16.40;;
59659;SDS011;45534;52.690;6.268;2023-04-16T05:48:38;39.08;;;22.67;;
59659;SDS011;45534;52.690;6.268;2023-04-16T05:51:03;31.02;;;18.92;;
59659;SDS011;45534;52.690;6.268;2023-04-16T05:53:29;30.73;;;21.35;;
59659;SDS011;45534;52.690;6.268;2023-04-16T05:55:55;24.30;;;14.07;;
59659;SDS011;45534;52.690;6.268;2023-04-16T05:58:20;39.45;;;24.50;;
59659;SDS011;45534;52.690;6.268;2023-04-16T06:00:46;21.65;;;16.80;;
59659;SDS011;45534;52.690;6.268;2023-04-16T06:03:12;16.63;;;14.15;;
59659;SDS011;45534;52.690;6.268;2023-04-16T06:05:38;58.80;;;27.08;;
59659;SDS011;45534;52.690;6.268;2023-04-16T06:08:03;25.00;;;18.75;;
59659;SDS011;45534;52.690;6.268;2023-04-16T06:10:29;23.95;;;15.80;;
59659;SDS011;45534;52.690;6.268;2023-04-16T06:12:55;42.33;;;22.17;;
59659;SDS011;45534;52.690;6.268;2023-04-16T06:15:21;49.60;;;26.50;;
59659;SDS011;45534;52.690;6.268;2023-04-16T06:17:46;41.30;;;27.05;;
59659;SDS011;45534;52.690;6.268;2023-04-16T06:20:12;48.35;;;25.42;;
59659;SDS011;45534;52.690;6.268;2023-04-16T06:22:38;47.35;;;27.23;;
59659;SDS011;45534;52.690;6.268;2023-04-16T06:25:04;41.17;;;25.95;;
59659;SDS011;45534;52.690;6.268;2023-04-16T06:27:30;34.97;;;24.05;;
59659;SDS011;45534;52.690;6.268;2023-04-16T06:29:56;48.25;;;29.40;;
59659;SDS011;45534;52.690;6.268;2023-04-16T06:32:22;44.08;;;19.63;;
59659;SDS011;45534;52.690;6.268;2023-04-16T06:34:48;44.00;;;23.75;;
59659;SDS011;45534;52.690;6.268;2023-04-16T06:37:14;24.00;;;20.10;;
59659;SDS011;45534;52.690;6.268;2023-04-16T06:39:40;33.72;;;19.45;;
59659;SDS011;45534;52.690;6.268;2023-04-16T06:42:06;34.50;;;21.77;;
59659;SDS011;45534;52.690;6.268;2023-04-16T06:44:31;44.42;;;29.45;;
59659;SDS011;45534;52.690;6.268;2023-04-16T06:46:58;28.77;;;13.38;;
59659;SDS011;45534;52.690;6.268;2023-04-16T06:49:24;60.53;;;31.50;;
59659;SDS011;45534;52.690;6.268;2023-04-16T06:51:50;43.60;;;28.83;;
59659;SDS011;45534;52.690;6.268;2023-04-16T06:54:16;34.67;;;17.13;;
59659;SDS011;45534;52.690;6.268;2023-04-16T06:56:42;21.17;;;18.83;;
59659;SDS011;45534;52.690;6.268;2023-04-16T06:59:08;27.75;;;18.48;;
59659;SDS011;45534;52.690;6.268;2023-04-16T07:01:34;40.67;;;24.13;;
59659;SDS011;45534;52.690;6.268;2023-04-16T07:04:00;35.28;;;24.08;;
59659;SDS011;45534;52.690;6.268;2023-04-16T07:06:26;31.23;;;17.48;;
59659;SDS011;45534;52.690;6.268;2023-04-16T07:08:52;59.13;;;33.05;;
59659;SDS011;45534;52.690;6.268;2023-04-16T07:11:17;36.42;;;19.60;;
59659;SDS011;45534;52.690;6.268;2023-04-16T07:13:43;35.42;;;21.55;;
59659;SDS011;45534;52.690;6.268;2023-04-16T07:16:09;28.90;;;21.25;;
59659;SDS011;45534;52.690;6.268;2023-04-16T07:18:35;44.13;;;27.73;;
59659;SDS011;45534;52.690;6.268;2023-04-16T07:21:00;49.78;;;32.25;;
59659;SDS011;45534;52.690;6.268;2023-04-16T07:23:26;58.00;;;28.63;;
59659;SDS011;45534;52.690;6.268;2023-04-16T07:25:52;33.75;;;18.52;;
59659;SDS011;45534;52.690;6.268;2023-04-16T07:28:17;36.67;;;24.67;;
59659;SDS011;45534;52.690;6.268;2023-04-16T07:30:44;35.97;;;20.30;;
59659;SDS011;45534;52.690;6.268;2023-04-16T07:33:09;29.92;;;14.88;;
59659;SDS011;45534;52.690;6.268;2023-04-16T07:35:35;28.20;;;16.30;;
59659;SDS011;45534;52.690;6.268;2023-04-16T07:38:01;23.42;;;17.92;;
59659;SDS011;45534;52.690;6.268;2023-04-16T07:40:27;35.67;;;25.63;;
59659;SDS011;45534;52.690;6.268;2023-04-16T07:42:53;33.78;;;18.70;;
59659;SDS011;45534;52.690;6.268;2023-04-16T07:45:19;19.15;;;11.45;;
59659;SDS011;45534;52.690;6.268;2023-04-16T07:47:45;27.77;;;20.60;;
59659;SDS011;45534;52.690;6.268;2023-04-16T07:50:11;28.35;;;18.92;;
59659;SDS011;45534;52.690;6.268;2023-04-16T07:52:37;40.70;;;25.80;;
59659;SDS011;45534;52.690;6.268;2023-04-16T07:55:05;18.42;;;12.68;;
59659;SDS011;45534;52.690;6.268;2023-04-16T07:57:32;22.17;;;13.32;;
59659;SDS011;45534;52.690;6.268;2023-04-16T07:59:57;33.00;;;18.08;;
59659;SDS011;45534;52.690;6.268;2023-04-16T08:02:26;24.40;;;14.65;;
59659;SDS011;45534;52.690;6.268;2023-04-16T08:04:51;29.65;;;18.73;;
59659;SDS011;45534;52.690;6.268;2023-04-16T08:07:17;26.55;;;19.40;;
59659;SDS011;45534;52.690;6.268;2023-04-16T08:09:49;13.82;;;10.65;;
59659;SDS011;45534;52.690;6.268;2023-04-16T08:12:17;33.53;;;18.42;;
59659;SDS011;45534;52.690;6.268;2023-04-16T08:14:43;31.55;;;26.15;;
59659;SDS011;45534;52.690;6.268;2023-04-16T08:17:10;53.47;;;31.60;;
59659;SDS011;45534;52.690;6.268;2023-04-16T08:19:38;38.70;;;26.10;;
59659;SDS011;45534;52.690;6.268;2023-04-16T08:22:05;39.78;;;22.60;;
59659;SDS011;45534;52.690;6.268;2023-04-16T08:24:30;32.60;;;15.80;;
59659;SDS011;45534;52.690;6.268;2023-04-16T08:26:56;26.35;;;12.13;;
59659;SDS011;45534;52.690;6.268;2023-04-16T08:29:22;29.58;;;21.23;;
59659;SDS011;45534;52.690;6.268;2023-04-16T08:31:51;14.57;;;12.93;;
59659;SDS011;45534;52.690;6.268;2023-04-16T08:34:18;37.22;;;23.02;;
59659;SDS011;45534;52.690;6.268;2023-04-16T08:36:44;26.02;;;15.85;;
59659;SDS011;45534;52.690;6.268;2023-04-16T08:39:10;19.30;;;11.85;;
59659;SDS011;45534;52.690;6.268;2023-04-16T08:41:37;40.00;;;26.60;;
59659;SDS011;45534;52.690;6.268;2023-04-16T08:44:10;40.88;;;27.10;;
59659;SDS011;45534;52.690;6.268;2023-04-16T08:46:44;16.23;;;13.25;;
59659;SDS011;45534;52.690;6.268;2023-04-16T08:49:13;28.50;;;15.70;;
59659;SDS011;45534;52.690;6.268;2023-04-16T08:51:42;11.00;;;9.57;;
59659;SDS011;45534;52.690;6.268;2023-04-16T08:54:14;26.80;;;15.15;;
59659;SDS011;45534;52.690;6.268;2023-04-16T08:56:49;21.30;;;14.07;;
59659;SDS011;45534;52.690;6.268;2023-04-16T08:59:15;24.23;;;15.63;;
59659;SDS011;45534;52.690;6.268;2023-04-16T09:01:41;26.45;;;11.68;;
59659;SDS011;45534;52.690;6.268;2023-04-16T09:04:07;33.90;;;16.88;;
59659;SDS011;45534;52.690;6.268;2023-04-16T09:06:33;41.95;;;24.50;;
59659;SDS011;45534;52.690;6.268;2023-04-16T09:09:00;25.00;;;14.63;;
59659;SDS011;45534;52.690;6.268;2023-04-16T09:11:28;27.58;;;20.23;;
59659;SDS011;45534;52.690;6.268;2023-04-16T09:13:54;20.02;;;12.43;;
59659;SDS011;45534;52.690;6.268;2023-04-16T09:16:21;15.13;;;10.65;;
59659;SDS011;45534;52.690;6.268;2023-04-16T09:18:48;24.20;;;18.17;;
59659;SDS011;45534;52.690;6.268;2023-04-16T09:21:15;22.50;;;14.27;;
59659;SDS011;45534;52.690;6.268;2023-04-16T09:23:42;19.13;;;10.57;;
59659;SDS011;45534;52.690;6.268;2023-04-16T09:26:07;24.08;;;15.55;;
59659;SDS011;45534;52.690;6.268;2023-04-16T09:31:10;24.10;;;16.15;;
59659;SDS011;45534;52.690;6.268;2023-04-16T09:33:40;20.83;;;13.83;;
59659;SDS011;45534;52.690;6.268;2023-04-16T09:36:07;23.88;;;14.60;;
59659;SDS011;45534;52.690;6.268;2023-04-16T09:38:51;15.73;;;12.05;;
59659;SDS011;45534;52.690;6.268;2023-04-16T09:41:23;31.40;;;20.83;;
59659;SDS011;45534;52.690;6.268;2023-04-16T09:46:22;23.20;;;14.07;;
59659;SDS011;45534;52.690;6.268;2023-04-16T09:48:49;20.20;;;14.23;;
59659;SDS011;45534;52.690;6.268;2023-04-16T09:51:15;19.77;;;10.27;;
59659;SDS011;45534;52.690;6.268;2023-04-16T09:53:40;30.30;;;14.90;;
59659;SDS011;45534;52.690;6.268;2023-04-16T09:56:07;26.98;;;12.25;;
59659;SDS011;45534;52.690;6.268;2023-04-16T09:58:35;14.68;;;7.53;;
59659;SDS011;45534;52.690;6.268;2023-04-16T10:03:32;22.08;;;10.60;;
59659;SDS011;45534;52.690;6.268;2023-04-16T10:06:12;21.73;;;14.25;;
59659;SDS011;45534;52.690;6.268;2023-04-16T10:08:45;23.92;;;12.40;;
59659;SDS011;45534;52.690;6.268;2023-04-16T10:13:41;16.95;;;9.40;;
59659;SDS011;45534;52.690;6.268;2023-04-16T10:16:07;22.85;;;12.23;;
59659;SDS011;45534;52.690;6.268;2023-04-16T10:18:37;22.13;;;12.63;;
59659;SDS011;45534;52.690;6.268;2023-04-16T10:21:04;19.83;;;11.65;;
59659;SDS011;45534;52.690;6.268;2023-04-16T10:23:31;17.50;;;11.00;;
59659;SDS011;45534;52.690;6.268;2023-04-16T10:25:57;32.92;;;13.07;;
59659;SDS011;45534;52.690;6.268;2023-04-16T10:28:24;11.00;;;9.95;;
59659;SDS011;45534;52.690;6.268;2023-04-16T10:30:50;26.00;;;13.70;;
59659;SDS011;45534;52.690;6.268;2023-04-16T10:33:20;15.73;;;9.52;;
59659;SDS011;45534;52.690;6.268;2023-04-16T10:35:48;19.55;;;12.00;;
59659;SDS011;45534;52.690;6.268;2023-04-16T10:38:23;25.08;;;11.25;;
59659;SDS011;45534;52.690;6.268;2023-04-16T10:40:57;16.23;;;12.70;;
59659;SDS011;45534;52.690;6.268;2023-04-16T10:43:27;19.70;;;13.15;;
59659;SDS011;45534;52.690;6.268;2023-04-16T10:45:54;17.10;;;12.38;;
59659;SDS011;45534;52.690;6.268;2023-04-16T10:48:20;15.55;;;11.40;;
59659;SDS011;45534;52.690;6.268;2023-04-16T10:50:54;17.48;;;10.13;;
59659;SDS011;45534;52.690;6.268;2023-04-16T10:55:58;30.27;;;16.67;;
59659;SDS011;45534;52.690;6.268;2023-04-16T10:58:36;18.35;;;9.05;;
59659;SDS011;45534;52.690;6.268;2023-04-16T11:01:11;24.23;;;12.75;;
59659;SDS011;45534;52.690;6.268;2023-04-16T11:03:41;14.20;;;9.95;;
59659;SDS011;45534;52.690;6.268;2023-04-16T11:06:08;34.53;;;11.57;;
59659;SDS011;45534;52.690;6.268;2023-04-16T11:08:37;14.30;;;11.13;;
59659;SDS011;45534;52.690;6.268;2023-04-16T11:11:04;13.98;;;9.95;;
59659;SDS011;45534;52.690;6.268;2023-04-16T11:13:30;34.58;;;14.93;;
59659;SDS011;45534;52.690;6.268;2023-04-16T11:15:56;22.35;;;15.02;;
59659;SDS011;45534;52.690;6.268;2023-04-16T11:18:23;20.60;;;11.10;;
59659;SDS011;45534;52.690;6.268;2023-04-16T11:20:49;17.83;;;10.18;;
59659;SDS011;45534;52.690;6.268;2023-04-16T11:23:15;17.75;;;11.35;;
59659;SDS011;45534;52.690;6.268;2023-04-16T11:25:41;14.77;;;9.18;;
59659;SDS011;45534;52.690;6.268;2023-04-16T11:28:07;22.77;;;13.73;;
59659;SDS011;45534;52.690;6.268;2023-04-16T11:30:33;24.35;;;11.93;;
59659;SDS011;45534;52.690;6.268;2023-04-16T11:33:03;21.85;;;10.40;;
59659;SDS011;45534;52.690;6.268;2023-04-16T11:35:31;22.40;;;11.10;;
59659;SDS011;45534;52.690;6.268;2023-04-16T11:37:57;24.60;;;11.20;;
59659;SDS011;45534;52.690;6.268;2023-04-16T11:40:23;20.58;;;10.45;;
59659;SDS011;45534;52.690;6.268;2023-04-16T11:42:49;21.20;;;12.02;;
59659;SDS011;45534;52.690;6.268;2023-04-16T11:45:15;18.98;;;11.57;;
59659;SDS011;45534;52.690;6.268;2023-04-16T11:52:50;22.75;;;16.50;;
59659;SDS011;45534;52.690;6.268;2023-04-16T11:55:17;21.70;;;10.98;;
59659;SDS011;45534;52.690;6.268;2023-04-16T11:57:43;23.70;;;13.07;;
59659;SDS011;45534;52.690;6.268;2023-04-16T12:00:10;23.27;;;13.63;;
59659;SDS011;45534;52.690;6.268;2023-04-16T12:02:47;23.65;;;12.55;;
59659;SDS011;45534;52.690;6.268;2023-04-16T12:05:31;12.00;;;8.15;;
59659;SDS011;45534;52.690;6.268;2023-04-16T12:08:00;16.27;;;10.77;;
59659;SDS011;45534;52.690;6.268;2023-04-16T12:10:27;25.90;;;13.15;;
59659;SDS011;45534;52.690;6.268;2023-04-16T12:12:54;19.45;;;13.13;;
59659;SDS011;45534;52.690;6.268;2023-04-16T12:18:13;20.05;;;11.50;;
59659;SDS011;45534;52.690;6.268;2023-04-16T12:20:40;14.43;;;9.25;;
59659;SDS011;45534;52.690;6.268;2023-04-16T12:23:07;14.10;;;9.65;;
59659;SDS011;45534;52.690;6.268;2023-04-16T12:25:34;20.95;;;11.02;;
59659;SDS011;45534;52.690;6.268;2023-04-16T12:28:00;23.63;;;14.50;;
59659;SDS011;45534;52.690;6.268;2023-04-16T12:30:26;26.10;;;12.68;;
59659;SDS011;45534;52.690;6.268;2023-04-16T12:32:52;16.75;;;11.80;;
59659;SDS011;45534;52.690;6.268;2023-04-16T12:35:40;34.03;;;15.05;;
59659;SDS011;45534;52.690;6.268;2023-04-16T12:38:07;18.30;;;11.70;;
59659;SDS011;45534;52.690;6.268;2023-04-16T12:40:33;17.83;;;11.95;;
59659;SDS011;45534;52.690;6.268;2023-04-16T12:43:00;18.88;;;12.75;;
59659;SDS011;45534;52.690;6.268;2023-04-16T12:45:26;19.83;;;12.20;;
59659;SDS011;45534;52.690;6.268;2023-04-16T12:47:52;16.17;;;11.13;;
59659;SDS011;45534;52.690;6.268;2023-04-16T12:50:18;14.93;;;11.40;;
59659;SDS011;45534;52.690;6.268;2023-04-16T12:52:44;15.00;;;9.57;;
59659;SDS011;45534;52.690;6.268;2023-04-16T12:55:10;20.38;;;10.32;;
59659;SDS011;45534;52.690;6.268;2023-04-16T12:57:36;16.35;;;11.75;;
59659;SDS011;45534;52.690;6.268;2023-04-16T13:00:02;25.92;;;11.50;;
59659;SDS011;45534;52.690;6.268;2023-04-16T13:02:30;14.48;;;9.77;;
59659;SDS011;45534;52.690;6.268;2023-04-16T13:04:56;9.40;;;8.50;;
59659;SDS011;45534;52.690;6.268;2023-04-16T13:07:22;18.27;;;11.52;;
59659;SDS011;45534;52.690;6.268;2023-04-16T13:09:50;27.38;;;12.77;;
59659;SDS011;45534;52.690;6.268;2023-04-16T13:12:16;14.02;;;10.18;;
59659;SDS011;45534;52.690;6.268;2023-04-16T13:14:42;21.77;;;13.02;;
59659;SDS011;45534;52.690;6.268;2023-04-16T13:17:08;21.73;;;15.18;;
59659;SDS011;45534;52.690;6.268;2023-04-16T13:19:34;19.58;;;11.90;;
59659;SDS011;45534;52.690;6.268;2023-04-16T13:21:59;21.23;;;11.48;;
59659;SDS011;45534;52.690;6.268;2023-04-16T13:24:25;22.77;;;12.32;;
59659;SDS011;45534;52.690;6.268;2023-04-16T13:26:51;20.23;;;12.63;;
59659;SDS011;45534;52.690;6.268;2023-04-16T13:29:18;16.48;;;11.63;;
59659;SDS011;45534;52.690;6.268;2023-04-16T13:31:44;22.67;;;12.70;;
59659;SDS011;45534;52.690;6.268;2023-04-16T13:34:10;22.83;;;12.50;;
59659;SDS011;45534;52.690;6.268;2023-04-16T13:36:36;28.73;;;18.15;;
59659;SDS011;45534;52.690;6.268;2023-04-16T13:39:03;23.27;;;16.83;;
59659;SDS011;45534;52.690;6.268;2023-04-16T13:41:29;26.90;;;17.92;;
59659;SDS011;45534;52.690;6.268;2023-04-16T13:43:56;17.70;;;10.15;;
59659;SDS011;45534;52.690;6.268;2023-04-16T13:46:21;20.83;;;12.60;;
59659;SDS011;45534;52.690;6.268;2023-04-16T13:48:47;16.63;;;13.43;;
59659;SDS011;45534;52.690;6.268;2023-04-16T13:51:13;34.45;;;21.70;;
59659;SDS011;45534;52.690;6.268;2023-04-16T13:53:39;22.55;;;15.93;;
59659;SDS011;45534;52.690;6.268;2023-04-16T13:56:05;21.50;;;15.98;;
59659;SDS011;45534;52.690;6.268;2023-04-16T13:58:32;27.70;;;18.85;;
59659;SDS011;45534;52.690;6.268;2023-04-16T14:00:58;30.58;;;19.20;;
59659;SDS011;45534;52.690;6.268;2023-04-16T14:03:24;25.30;;;17.52;;
59659;SDS011;45534;52.690;6.268;2023-04-16T14:05:51;29.58;;;19.85;;
59659;SDS011;45534;52.690;6.268;2023-04-16T14:08:18;18.38;;;15.13;;
59659;SDS011;45534;52.690;6.268;2023-04-16T14:10:45;24.52;;;15.55;;
59659;SDS011;45534;52.690;6.268;2023-04-16T14:13:12;15.70;;;10.82;;
59659;SDS011;45534;52.690;6.268;2023-04-16T14:15:37;19.00;;;14.98;;
59659;SDS011;45534;52.690;6.268;2023-04-16T14:18:03;21.67;;;18.58;;
59659;SDS011;45534;52.690;6.268;2023-04-16T14:20:29;27.08;;;13.68;;
59659;SDS011;45534;52.690;6.268;2023-04-16T14:22:55;19.83;;;12.02;;
59659;SDS011;45534;52.690;6.268;2023-04-16T14:25:21;15.40;;;12.30;;
59659;SDS011;45534;52.690;6.268;2023-04-16T14:27:47;30.45;;;22.52;;
59659;SDS011;45534;52.690;6.268;2023-04-16T14:30:13;31.35;;;17.20;;
59659;SDS011;45534;52.690;6.268;2023-04-16T14:32:40;21.38;;;17.08;;
59659;SDS011;45534;52.690;6.268;2023-04-16T14:35:06;17.70;;;14.63;;
59659;SDS011;45534;52.690;6.268;2023-04-16T14:37:32;25.15;;;18.80;;
59659;SDS011;45534;52.690;6.268;2023-04-16T14:40:00;18.02;;;11.48;;